createdAt,value
2023-02-12T00:00:18.156Z,45.63
2023-02-12T00:06:19.992Z,46.83
2023-02-12T00:12:21.742Z,44.83
2023-02-12T00:18:23.539Z,47.17
2023-02-12T00:24:25.757Z,47.63
2023-02-12T00:30:27.673Z,43.65
2023-02-12T00:36:32.411Z,45.92
2023-02-12T00:42:34.475Z,45.38
2023-02-12T00:48:39.803Z,42.88
2023-02-12T00:54:43.752Z,41.65
2023-02-12T01:00:45.955Z,41.50
2023-02-12T01:06:48.011Z,40.50
2023-02-12T01:12:50.608Z,40.10
2023-02-12T01:18:56.083Z,41.08
2023-02-12T01:24:58.124Z,41.35
2023-02-12T01:31:00.122Z,41.85
2023-02-12T01:37:02.025Z,42.00
2023-02-12T01:43:04.050Z,40.58
2023-02-12T01:49:10.978Z,40.80
2023-02-12T01:55:14.454Z,39.67
2023-02-12T02:01:21.659Z,39.85
2023-02-12T02:07:29.412Z,41.70
2023-02-12T02:13:50.796Z,40.38
2023-02-12T02:20:17.660Z,41.25
2023-02-12T02:26:41.100Z,41.33
2023-02-12T02:32:56.280Z,43.13
2023-02-12T02:39:05.757Z,45.55
2023-02-12T02:45:36.474Z,44.35
2023-02-12T02:51:46.450Z,44.17
2023-02-12T02:58:14.370Z,44.00
2023-02-12T03:04:38.484Z,46.25
2023-02-12T03:10:44.892Z,43.83
2023-02-12T03:17:04.086Z,48.60
2023-02-12T03:23:14.190Z,47.33
2023-02-12T03:29:17.595Z,48.92
2023-02-12T03:35:36.166Z,52.13
2023-02-12T03:41:49.359Z,48.83
2023-02-12T03:48:14.692Z,47.67
2023-02-12T03:54:20.097Z,47.78
2023-02-12T04:00:24.299Z,50.05
2023-02-12T04:06:29.330Z,46.63
2023-02-12T04:12:39.240Z,48.50
2023-02-12T04:18:43.970Z,48.20
2023-02-12T04:25:04.319Z,49.30
2023-02-12T04:31:13.149Z,48.25
2023-02-12T04:37:33.844Z,50.78
2023-02-12T04:43:37.541Z,50.40
2023-02-12T04:49:39.521Z,51.10
2023-02-12T04:55:41.343Z,50.78
2023-02-12T05:01:44.348Z,52.13
2023-02-12T05:07:46.175Z,51.92
2023-02-12T05:13:52.618Z,53.63
2023-02-12T05:19:54.480Z,55.45
2023-02-12T05:25:59.627Z,52.97
2023-02-12T05:32:01.609Z,54.25
2023-02-12T05:38:03.491Z,57.33
2023-02-12T05:44:06.578Z,59.72
2023-02-12T05:50:08.688Z,56.80
2023-02-12T05:56:12.270Z,56.75
2023-02-12T06:02:14.051Z,58.25
2023-02-12T06:08:15.774Z,58.70
2023-02-12T06:14:19.835Z,60.60
2023-02-12T06:20:21.573Z,56.63
2023-02-12T06:26:23.701Z,63.10
2023-02-12T06:32:25.763Z,54.63
2023-02-12T06:38:27.544Z,53.28
2023-02-12T06:44:29.314Z,50.38
2023-02-12T06:50:31.225Z,52.08
2023-02-12T06:56:33.005Z,51.33
2023-02-12T07:02:36.280Z,49.05
2023-02-12T07:08:40.135Z,53.05
2023-02-12T07:14:41.873Z,51.92
2023-02-12T07:20:43.617Z,51.95
2023-02-12T07:26:45.456Z,52.33
2023-02-12T07:32:47.256Z,51.15
2023-02-12T07:38:49.264Z,51.00
2023-02-12T07:44:50.992Z,47.33
2023-02-12T07:50:52.795Z,50.00
2023-02-12T07:56:54.713Z,51.75
2023-02-12T08:02:56.465Z,53.47
2023-02-12T08:09:00.499Z,54.15
2023-02-12T08:15:02.268Z,51.17
2023-02-12T08:21:15.468Z,48.83
2023-02-12T08:27:17.214Z,51.05
2023-02-12T08:33:18.934Z,50.90
2023-02-12T08:39:21.494Z,51.35
2023-02-12T08:45:23.278Z,51.65
2023-02-12T08:51:28.682Z,52.10
2023-02-12T08:57:30.612Z,54.08
2023-02-12T09:03:32.368Z,48.60
2023-02-12T09:09:34.254Z,48.13
2023-02-12T09:15:44.877Z,46.13
2023-02-12T09:21:53.927Z,52.55
2023-02-12T09:27:56.977Z,45.90
2023-02-12T09:34:01.913Z,45.45
2023-02-12T09:40:03.767Z,43.22
2023-02-12T09:46:30.638Z,41.65
2023-02-12T09:52:34.828Z,38.47
2023-02-12T09:58:55.384Z,35.35
2023-02-12T10:05:01.872Z,33.47
2023-02-12T10:11:26.418Z,35.55
2023-02-12T10:17:46.329Z,29.75
2023-02-12T10:24:00.382Z,25.20
2023-02-12T10:30:13.640Z,26.17
2023-02-12T10:36:37.117Z,26.17
2023-02-12T10:42:42.327Z,23.27
2023-02-12T10:48:48.183Z,21.92
2023-02-12T10:54:49.962Z,22.10
2023-02-12T11:00:58.296Z,20.75
2023-02-12T11:07:05.824Z,21.17
2023-02-12T11:13:24.695Z,22.77
2023-02-12T11:19:30.657Z,22.77
2023-02-12T11:25:37.772Z,22.17
2023-02-12T11:31:41.635Z,17.47
2023-02-12T11:37:45.267Z,20.83
2023-02-12T11:43:47.277Z,17.40
2023-02-12T11:49:53.875Z,15.90
2023-02-12T11:56:02.207Z,15.55
2023-02-12T12:02:27.898Z,14.90
2023-02-12T12:08:44.926Z,15.27
2023-02-12T12:15:09.291Z,16.27
2023-02-12T12:21:26.365Z,15.35
2023-02-12T12:27:59.785Z,15.00
2023-02-12T12:34:16.939Z,14.52
2023-02-12T12:40:49.166Z,16.10
2023-02-12T12:46:58.630Z,18.17
2023-02-12T12:53:10.682Z,18.17
2023-02-12T12:59:35.362Z,19.08
2023-02-12T13:06:15.977Z,19.30
2023-02-12T13:12:37.060Z,18.40
2023-02-12T13:18:51.159Z,17.58
2023-02-12T13:25:35.131Z,20.85
2023-02-12T13:31:46.037Z,20.27
2023-02-12T13:37:51.395Z,19.23
2023-02-12T13:44:31.634Z,19.25
2023-02-12T13:51:01.461Z,20.50
2023-02-12T13:57:09.412Z,19.65
2023-02-12T14:09:23.930Z,19.58
2023-02-12T14:15:31.156Z,17.33
2023-02-12T14:21:36.205Z,18.80
2023-02-12T14:27:58.647Z,19.83
2023-02-12T14:34:06.784Z,18.92
2023-02-12T14:40:42.524Z,19.95
2023-02-12T14:46:53.606Z,19.27
2023-02-12T14:53:16.246Z,18.95
2023-02-12T14:59:21.989Z,21.55
2023-02-12T15:05:31.192Z,20.20
2023-02-12T15:11:33.010Z,19.67
2023-02-12T15:17:39.485Z,18.92
2023-02-12T15:23:44.437Z,20.27
2023-02-12T15:29:52.767Z,19.13
2023-02-12T15:35:55.832Z,21.55
2023-02-12T15:41:58.074Z,19.95
2023-02-12T15:48:10.694Z,18.33
2023-02-12T15:54:21.914Z,19.42
2023-02-12T16:00:56.822Z,19.05
2023-02-12T16:07:00.195Z,17.67
2023-02-12T16:13:02.093Z,18.20
2023-02-12T16:19:21.104Z,36.40
2023-02-12T16:25:31.982Z,16.42
2023-02-12T16:31:33.801Z,18.42
2023-02-12T16:37:35.573Z,16.92
2023-02-12T16:43:37.438Z,17.25
2023-02-12T16:49:55.898Z,16.45
2023-02-12T16:56:01.844Z,15.40
2023-02-12T17:02:10.962Z,23.80
2023-02-12T17:08:19.360Z,22.35
2023-02-12T17:14:21.413Z,21.17
2023-02-12T17:20:23.193Z,21.58
2023-02-12T17:26:25.934Z,20.00
2023-02-12T17:32:27.936Z,21.92
2023-02-12T17:38:29.714Z,20.70
2023-02-12T17:44:31.515Z,21.73
2023-02-12T17:50:33.261Z,19.92
2023-02-12T17:56:35.421Z,19.33
2023-02-12T18:10:03.520Z,22.23
2023-02-12T18:16:19.074Z,21.23
2023-02-12T18:22:27.916Z,20.13
2023-02-12T18:28:47.535Z,22.40
2023-02-12T18:34:59.431Z,22.30
2023-02-12T18:56:04.197Z,23.80
2023-02-12T19:02:22.757Z,21.42
2023-02-12T19:08:32.153Z,19.60
2023-02-12T19:14:51.394Z,21.15
2023-02-12T19:21:09.103Z,19.88
2023-02-12T19:34:07.415Z,19.77
2023-02-12T19:48:04.782Z,18.58
2023-02-12T19:54:13.934Z,19.33
2023-02-12T20:00:27.185Z,20.63
2023-02-12T20:07:00.928Z,21.88
2023-02-12T20:13:06.379Z,19.55
2023-02-12T20:19:10.820Z,19.67
2023-02-12T20:25:16.816Z,20.15
2023-02-12T20:31:32.849Z,20.42
2023-02-12T20:44:41.958Z,21.67
2023-02-12T20:50:51.581Z,21.58
2023-02-12T20:57:09.631Z,21.73
2023-02-12T21:09:26.422Z,21.23
2023-02-12T21:15:42.381Z,21.30
2023-02-12T21:21:55.600Z,18.60
2023-02-12T21:27:57.565Z,17.13
2023-02-12T21:34:01.077Z,15.55
2023-02-12T21:40:07.524Z,17.67
2023-02-12T21:46:10.519Z,15.95
2023-02-12T21:52:13.390Z,14.82
2023-02-12T21:58:15.729Z,15.75
2023-02-12T22:04:18.457Z,18.05
2023-02-12T22:10:20.581Z,16.70
2023-02-12T22:16:25.455Z,15.07
2023-02-12T22:22:27.410Z,15.48
2023-02-12T22:28:29.417Z,17.10
2023-02-12T22:34:31.351Z,16.73
2023-02-12T22:40:33.238Z,15.95
2023-02-12T22:46:36.428Z,19.42
2023-02-12T22:52:38.192Z,16.75
2023-02-12T22:58:40.667Z,18.17
2023-02-12T23:04:42.488Z,17.40
2023-02-12T23:10:44.264Z,14.82
2023-02-12T23:16:46.705Z,17.33
2023-02-12T23:22:48.614Z,16.38
2023-02-12T23:28:50.872Z,16.33
2023-02-12T23:34:52.624Z,14.18
2023-02-12T23:40:54.411Z,14.43
2023-02-12T23:46:56.205Z,13.57
2023-02-12T23:52:59.088Z,13.18
2023-02-12T23:59:00.880Z,12.50
